Time;durP1;ratioP1;P1;durP2;ratioP2;P2;SDS_P1;SDS_P2;PMS_P1;PMS_P2;Temp;Humidity;BMP_temperature;BMP_pressure;BME280_temperature;BME280_humidity;BME280_pressure;Samples;Min_cycle;Max_cycle;Signal;HPM_P1;HPM_P2
2022/04/06 00:01:03;;;;;;;0.00;0.00;;;8.00;99.90;;;;;;5041945;28;20040;-87
2022/04/06 00:03:30;;;;;;;0.10;0.10;;;8.00;99.90;;;;;;5057548;28;20775;-86
2022/04/06 00:05:57;;;;;;;0.00;0.00;;;8.00;99.90;;;;;;5090761;28;20051;-88
2022/04/06 00:08:23;;;;;;;0.10;0.10;;;8.00;99.90;;;;;;5074508;28;20528;-87
2022/04/06 00:10:50;;;;;;;0.10;0.10;;;7.90;99.90;;;;;;5041229;28;20530;-87
2022/04/06 00:13:17;;;;;;;0.10;0.10;;;8.00;99.90;;;;;;5057827;28;20443;-87
2022/04/06 00:15:44;;;;;;;0.10;0.10;;;8.00;99.90;;;;;;5040914;28;20063;-87
2022/04/06 00:18:10;;;;;;;0.10;0.10;;;8.10;99.90;;;;;;5062532;28;20048;-86
2022/04/06 00:20:37;;;;;;;0.10;0.10;;;7.90;99.90;;;;;;5047428;28;20036;-88
2022/04/06 00:23:04;;;;;;;0.10;0.10;;;7.90;99.90;;;;;;5064061;28;20063;-85
2022/04/06 00:25:32;;;;;;;0.10;0.10;;;7.90;99.90;;;;;;5063967;28;20063;-87
2022/04/06 00:27:59;;;;;;;0.05;0.05;;;8.00;99.90;;;;;;5048200;28;20040;-87
2022/04/06 00:30:25;;;;;;;0.10;0.10;;;7.90;99.90;;;;;;5047627;28;20382;-85
2022/04/06 00:32:52;;;;;;;0.10;0.10;;;7.90;99.90;;;;;;5047263;28;20040;-85
2022/04/06 00:35:32;;;;;;;0.08;0.08;;;7.90;99.90;;;;;;5047457;28;20098;-85
2022/04/06 00:38:01;;;;;;;0.10;0.10;;;7.90;99.90;;;;;;5051658;28;20032;-85
2022/04/06 00:40:29;;;;;;;0.10;0.10;;;7.90;99.90;;;;;;5096458;28;20033;-86
2022/04/06 00:42:56;;;;;;;0.10;0.10;;;8.00;99.90;;;;;;5063147;28;20044;-87
2022/04/06 00:45:23;;;;;;;0.10;0.10;;;7.90;99.90;;;;;;5064234;28;20044;-87
2022/04/06 00:47:51;;;;;;;0.10;0.10;;;7.90;99.90;;;;;;5064291;28;20036;-87
2022/04/06 00:50:20;;;;;;;0.10;0.10;;;7.90;99.90;;;;;;5064064;28;20044;-88
2022/04/06 00:52:48;;;;;;;0.10;0.10;;;8.00;99.90;;;;;;5096677;28;20117;-87
2022/04/06 00:55:15;;;;;;;0.00;0.00;;;8.00;99.90;;;;;;5080634;28;20072;-85
2022/04/06 00:57:43;;;;;;;0.10;0.10;;;8.00;99.90;;;;;;5079297;28;20094;-87
2022/04/06 01:00:10;;;;;;;0.05;0.05;;;7.90;99.90;;;;;;5063338;28;20466;-85
2022/04/06 01:02:38;;;;;;;0.10;0.10;;;8.00;99.90;;;;;;5047510;28;20040;-87
2022/04/06 01:05:06;;;;;;;0.00;0.00;;;8.00;99.90;;;;;;5063443;28;20079;-85
2022/04/06 01:07:32;;;;;;;0.10;0.10;;;8.00;99.90;;;;;;5046551;28;20048;-85
2022/04/06 01:09:59;;;;;;;0.10;0.10;;;8.00;99.90;;;;;;5063055;28;20489;-86
2022/04/06 01:12:28;;;;;;;0.08;0.08;;;8.00;99.90;;;;;;5063787;28;20081;-86
2022/04/06 01:14:55;;;;;;;0.00;0.00;;;8.00;99.90;;;;;;5095943;28;20497;-86
2022/04/06 01:17:21;;;;;;;0.10;0.10;;;8.00;99.90;;;;;;5080350;28;20040;-87
2022/04/06 01:19:51;;;;;;;0.10;0.10;;;8.00;99.90;;;;;;5047117;28;20584;-87
2022/04/06 01:22:19;;;;;;;0.10;0.10;;;8.00;99.90;;;;;;5047861;28;20036;-85
2022/04/06 01:24:48;;;;;;;0.10;0.10;;;8.00;99.90;;;;;;5063912;28;20124;-86
2022/04/06 01:27:15;;;;;;;0.10;0.10;;;8.00;99.90;;;;;;5096236;28;20044;-87
2022/04/06 01:29:43;;;;;;;0.10;0.10;;;8.00;99.90;;;;;;5043200;28;20048;-85
2022/04/06 01:32:13;;;;;;;0.10;0.10;;;8.00;99.90;;;;;;5076259;28;20044;-86
2022/04/06 01:34:40;;;;;;;0.08;0.08;;;8.00;99.90;;;;;;5076185;28;20090;-86
2022/04/06 01:37:09;;;;;;;0.10;0.10;;;8.00;99.90;;;;;;5076970;28;20040;-86
2022/04/06 01:39:37;;;;;;;0.10;0.10;;;8.00;99.90;;;;;;5043607;28;20075;-87
2022/04/06 01:42:06;;;;;;;0.10;0.10;;;8.30;99.90;;;;;;5044728;28;20048;-86
2022/04/06 01:44:33;;;;;;;0.10;0.10;;;8.00;99.90;;;;;;5076393;28;20040;-88
2022/04/06 01:47:01;;;;;;;0.35;0.30;;;8.10;99.90;;;;;;5093513;28;20040;-88
2022/04/06 01:52:14;;;;;;;0.10;0.10;;;8.10;99.90;;;;;;5078306;28;20048;-86
2022/04/06 01:54:56;;;;;;;0.10;0.10;;;8.10;99.90;;;;;;5076333;28;20119;-87
2022/04/06 01:57:24;;;;;;;0.10;0.10;;;8.10;99.90;;;;;;5076243;28;20052;-85
2022/04/06 01:59:51;;;;;;;0.10;0.10;;;8.10;99.90;;;;;;5075624;28;20558;-87
2022/04/06 02:02:20;;;;;;;0.10;0.10;;;8.10;99.90;;;;;;5076382;28;20040;-88
2022/04/06 02:04:47;;;;;;;0.10;0.10;;;8.10;99.90;;;;;;5059521;28;20043;-87
2022/04/06 02:07:14;;;;;;;0.00;0.00;;;8.10;99.90;;;;;;5059262;28;20047;-88
2022/04/06 02:09:44;;;;;;;0.10;0.10;;;8.10;99.90;;;;;;5059042;28;20040;-86
2022/04/06 02:12:11;;;;;;;0.00;0.00;;;8.30;99.90;;;;;;5075692;28;20049;-86
2022/04/06 02:14:39;;;;;;;0.00;0.00;;;8.10;99.90;;;;;;5076024;28;20120;-87
2022/04/06 02:17:07;;;;;;;0.10;0.10;;;8.10;99.90;;;;;;5076029;28;20047;-87
2022/04/06 02:19:39;;;;;;;0.10;0.10;;;8.10;99.90;;;;;;5043666;28;20036;-88
2022/04/06 02:22:06;;;;;;;0.00;0.00;;;8.10;99.90;;;;;;5060264;28;20043;-88
2022/04/06 02:24:34;;;;;;;0.10;0.10;;;8.40;99.90;;;;;;5059202;28;20068;-87
2022/04/06 02:27:01;;;;;;;0.00;0.00;;;8.10;99.90;;;;;;5090374;28;20135;-88
2022/04/06 02:29:29;;;;;;;0.10;0.10;;;8.10;99.90;;;;;;5058918;28;20758;-86
2022/04/06 02:31:56;;;;;;;0.10;0.10;;;8.10;99.90;;;;;;5074646;28;20044;-88
2022/04/06 02:34:22;;;;;;;0.10;0.10;;;8.10;99.90;;;;;;5092617;28;20040;-88
2022/04/06 02:36:49;;;;;;;0.10;0.10;;;8.10;99.90;;;;;;5057937;28;20044;-86
2022/04/06 02:39:16;;;;;;;0.00;0.00;;;8.10;99.90;;;;;;5075774;28;20037;-85
2022/04/06 02:41:43;;;;;;;0.10;0.10;;;8.10;99.90;;;;;;5058972;28;20778;-87
2022/04/06 02:44:10;;;;;;;0.00;0.00;;;8.10;99.90;;;;;;5092136;28;20072;-86
2022/04/06 02:46:37;;;;;;;0.10;0.10;;;8.10;99.90;;;;;;5091804;28;20125;-87
2022/04/06 02:49:04;;;;;;;0.10;0.10;;;8.10;99.90;;;;;;5059310;28;20041;-88
2022/04/06 02:51:32;;;;;;;0.10;0.10;;;8.20;99.90;;;;;;5091937;28;20128;-88
2022/04/06 02:53:58;;;;;;;0.52;0.30;;;8.20;99.90;;;;;;5074768;28;20489;-88
2022/04/06 02:56:26;;;;;;;0.00;0.00;;;8.20;99.90;;;;;;5058275;28;20033;-88
2022/04/06 02:58:53;;;;;;;0.10;0.10;;;8.20;99.90;;;;;;5108348;28;20072;-86
2022/04/06 03:01:20;;;;;;;0.10;0.10;;;8.20;99.90;;;;;;5058220;28;20497;-85
2022/04/06 03:03:47;;;;;;;0.05;0.05;;;8.10;99.90;;;;;;5075558;28;20044;-86
2022/04/06 03:06:14;;;;;;;1.60;0.40;;;8.20;99.90;;;;;;5058491;28;20036;-88
2022/04/06 03:08:41;;;;;;;0.10;0.10;;;8.20;99.90;;;;;;5092133;28;20500;-86
2022/04/06 03:11:07;;;;;;;0.05;0.05;;;8.20;99.90;;;;;;5058637;28;20531;-88
2022/04/06 03:13:34;;;;;;;0.10;0.10;;;8.20;99.90;;;;;;5091289;28;20036;-86
2022/04/06 03:16:01;;;;;;;0.10;0.10;;;8.20;99.90;;;;;;5090788;28;20044;-88
2022/04/06 03:18:28;;;;;;;0.00;0.00;;;8.20;99.90;;;;;;5058405;28;20036;-88
2022/04/06 03:20:54;;;;;;;0.10;0.10;;;8.10;99.90;;;;;;5058137;28;20049;-86
2022/04/06 03:23:21;;;;;;;0.10;0.10;;;8.50;99.90;;;;;;5091737;28;20040;-88
2022/04/06 03:25:48;;;;;;;0.15;0.13;;;8.10;99.90;;;;;;5055086;28;20065;-88
2022/04/06 03:28:15;;;;;;;0.10;0.10;;;8.10;99.90;;;;;;5052160;28;20037;-86
2022/04/06 03:30:42;;;;;;;0.00;0.00;;;8.10;99.90;;;;;;5050445;28;20139;-88
2022/04/06 03:33:09;;;;;;;0.05;0.05;;;8.10;99.90;;;;;;5034991;28;20124;-88
2022/04/06 03:35:36;;;;;;;0.20;0.20;;;8.10;99.90;;;;;;5050619;28;20041;-85
2022/04/06 03:38:04;;;;;;;0.47;0.17;;;8.10;99.90;;;;;;5034440;28;20033;-86
2022/04/06 03:40:30;;;;;;;0.08;0.08;;;8.10;99.90;;;;;;5036333;28;20044;-87
2022/04/06 03:42:57;;;;;;;0.10;0.10;;;8.10;99.90;;;;;;5034541;28;20148;-85
2022/04/06 03:45:24;;;;;;;0.10;0.10;;;8.10;99.90;;;;;;5050293;28;20038;-85
2022/04/06 03:47:51;;;;;;;0.10;0.10;;;8.10;99.90;;;;;;5017609;28;20044;-85
2022/04/06 03:50:18;;;;;;;0.10;0.10;;;8.10;99.90;;;;;;5051105;28;20033;-85
2022/04/06 03:52:45;;;;;;;0.10;0.10;;;8.00;99.90;;;;;;5050082;28;20049;-88
2022/04/06 03:55:12;;;;;;;0.10;0.10;;;8.00;99.90;;;;;;5034121;28;20041;-88
2022/04/06 03:57:39;;;;;;;0.10;0.10;;;8.10;99.90;;;;;;5018017;28;20033;-85
2022/04/06 04:00:08;;;;;;;0.10;0.10;;;8.00;99.90;;;;;;5033703;28;20095;-88
2022/04/06 04:02:35;;;;;;;0.00;0.00;;;8.00;99.90;;;;;;5034393;28;20121;-88
2022/04/06 04:05:03;;;;;;;0.20;0.20;;;8.00;99.90;;;;;;5050751;28;20056;-85
2022/04/06 04:07:31;;;;;;;0.63;0.57;;;8.00;99.90;;;;;;5035114;28;20048;-88
2022/04/06 04:09:58;;;;;;;0.00;0.00;;;8.10;99.90;;;;;;5051518;28;20122;-85
2022/04/06 04:12:25;;;;;;;0.10;0.10;;;8.00;99.90;;;;;;5050167;28;20033;-85
2022/04/06 04:14:52;;;;;;;0.10;0.10;;;8.00;99.90;;;;;;5034866;28;20628;-85
2022/04/06 04:17:18;;;;;;;0.10;0.10;;;8.00;99.90;;;;;;5033292;28;20065;-87
2022/04/06 04:19:45;;;;;;;0.10;0.10;;;8.00;99.90;;;;;;5018153;28;20491;-88
2022/04/06 04:22:12;;;;;;;0.10;0.10;;;8.10;99.90;;;;;;5050254;28;20089;-86
2022/04/06 04:24:39;;;;;;;0.10;0.10;;;8.00;99.90;;;;;;5036877;28;20163;-88
2022/04/06 04:27:06;;;;;;;0.10;0.10;;;8.00;99.90;;;;;;5050349;28;20383;-87
2022/04/06 04:29:34;;;;;;;0.08;0.08;;;8.00;99.90;;;;;;5049895;28;20041;-85
2022/04/06 04:32:00;;;;;;;0.10;0.10;;;8.10;99.90;;;;;;5050053;28;20038;-88
2022/04/06 04:34:27;;;;;;;0.10;0.10;;;8.10;99.90;;;;;;5050379;28;20132;-88
2022/04/06 04:36:54;;;;;;;0.10;0.10;;;8.10;99.90;;;;;;5050057;28;20052;-85
2022/04/06 04:39:20;;;;;;;0.20;0.20;;;8.10;99.90;;;;;;5033320;28;20052;-87
2022/04/06 04:41:47;;;;;;;0.00;0.00;;;8.10;99.90;;;;;;5049891;28;20124;-87
2022/04/06 04:44:14;;;;;;;0.10;0.10;;;8.10;99.90;;;;;;5050172;28;20128;-87
2022/04/06 04:46:41;;;;;;;0.20;0.20;;;8.00;99.90;;;;;;5050834;28;20501;-88
2022/04/06 04:49:07;;;;;;;0.10;0.10;;;8.10;99.90;;;;;;5032908;28;20044;-88
2022/04/06 04:51:35;;;;;;;0.17;0.17;;;8.10;99.90;;;;;;5034323;28;20041;-85
2022/04/06 04:54:02;;;;;;;0.10;0.10;;;8.10;99.90;;;;;;5049831;28;20060;-88
2022/04/06 04:56:32;;;;;;;0.10;0.10;;;8.10;99.90;;;;;;5033797;28;20040;-86
2022/04/06 04:59:00;;;;;;;0.08;0.08;;;8.10;99.90;;;;;;5065966;28;20151;-86
2022/04/06 05:01:26;;;;;;;0.10;0.10;;;8.10;99.90;;;;;;5049856;28;20559;-86
2022/04/06 05:03:56;;;;;;;0.10;0.10;;;8.10;99.90;;;;;;5051709;28;20041;-85
2022/04/06 05:06:23;;;;;;;0.20;0.20;;;8.10;99.90;;;;;;5053345;28;20520;-88
2022/04/06 05:08:50;;;;;;;0.35;0.35;;;8.00;99.90;;;;;;5037097;28;20049;-86
2022/04/06 05:11:16;;;;;;;0.10;0.10;;;8.00;99.90;;;;;;5036685;28;20128;-85
2022/04/06 05:13:43;;;;;;;0.10;0.10;;;8.00;99.90;;;;;;5053791;28;20041;-86
2022/04/06 05:16:10;;;;;;;0.10;0.10;;;8.00;99.90;;;;;;5037860;28;20040;-87
2022/04/06 05:18:37;;;;;;;0.10;0.10;;;8.00;99.90;;;;;;5053934;28;20034;-85
2022/04/06 05:21:05;;;;;;;0.10;0.10;;;8.00;99.90;;;;;;5036212;28;20041;-87
2022/04/06 05:23:31;;;;;;;0.00;0.00;;;8.10;99.90;;;;;;5037518;28;20037;-87
2022/04/06 05:25:58;;;;;;;0.10;0.10;;;8.00;99.90;;;;;;5042126;28;20067;-86
2022/04/06 05:28:25;;;;;;;0.00;0.00;;;8.00;99.90;;;;;;5036554;28;20149;-88
2022/04/06 05:30:51;;;;;;;0.00;0.00;;;8.00;99.90;;;;;;5037502;28;20072;-86
2022/04/06 05:33:18;;;;;;;0.10;0.10;;;8.00;99.90;;;;;;5052914;28;20170;-88
2022/04/06 05:35:45;;;;;;;0.10;0.10;;;8.10;99.90;;;;;;5020156;28;20429;-86
2022/04/06 05:38:12;;;;;;;0.10;0.10;;;8.00;99.90;;;;;;5052770;28;20099;-86
2022/04/06 05:40:39;;;;;;;0.10;0.10;;;8.00;99.90;;;;;;5053115;28;20130;-88
2022/04/06 05:43:06;;;;;;;0.10;0.10;;;8.00;99.90;;;;;;5020251;28;20403;-88
2022/04/06 05:45:33;;;;;;;0.10;0.10;;;8.00;99.90;;;;;;5052849;28;20057;-86
2022/04/06 05:47:59;;;;;;;0.10;0.10;;;8.10;99.90;;;;;;5037120;28;20465;-88
2022/04/06 05:50:26;;;;;;;0.10;0.10;;;8.10;99.90;;;;;;5019566;28;20407;-88
2022/04/06 05:52:53;;;;;;;0.10;0.10;;;8.10;99.90;;;;;;5019686;28;20041;-84
2022/04/06 05:55:19;;;;;;;0.10;0.10;;;8.10;99.90;;;;;;5019262;28;20124;-85
2022/04/06 05:57:46;;;;;;;0.10;0.10;;;8.10;99.90;;;;;;5052758;28;20043;-87
2022/04/06 06:00:14;;;;;;;0.08;0.08;;;8.10;99.90;;;;;;5035939;28;20042;-88
2022/04/06 06:02:43;;;;;;;0.05;0.05;;;8.10;99.90;;;;;;5052930;28;20045;-88
2022/04/06 06:05:09;;;;;;;0.00;0.00;;;8.10;99.90;;;;;;5019834;28;20068;-86
2022/04/06 06:07:36;;;;;;;0.10;0.10;;;8.10;99.90;;;;;;5020159;28;20042;-87
2022/04/06 06:10:04;;;;;;;0.10;0.10;;;8.10;99.90;;;;;;5019547;28;20100;-89
2022/04/06 06:12:31;;;;;;;0.10;0.10;;;8.10;99.90;;;;;;5035657;28;20084;-85
2022/04/06 06:15:00;;;;;;;0.10;0.10;;;8.10;99.90;;;;;;5019099;28;20380;-85
2022/04/06 06:17:26;;;;;;;0.10;0.10;;;8.10;99.90;;;;;;5051464;28;20038;-86
2022/04/06 06:19:53;;;;;;;0.10;0.10;;;8.10;99.90;;;;;;5035947;28;20132;-89
2022/04/06 06:22:20;;;;;;;0.10;0.10;;;8.10;99.90;;;;;;5036640;28;20041;-85
2022/04/06 06:24:47;;;;;;;0.10;0.10;;;8.10;99.90;;;;;;5037117;28;20090;-88
2022/04/06 06:27:19;;;;;;;0.10;0.10;;;8.30;99.90;;;;;;5020360;28;20059;-86
2022/04/06 06:29:50;;;;;;;0.10;0.10;;;8.10;99.90;;;;;;5020509;28;20041;-85
2022/04/06 06:32:17;;;;;;;0.15;0.15;;;8.10;99.90;;;;;;5067661;28;20408;-88
2022/04/06 06:34:44;;;;;;;0.00;0.00;;;8.10;99.90;;;;;;5021368;28;20041;-85
2022/04/06 06:37:11;;;;;;;0.10;0.10;;;8.10;99.90;;;;;;5044807;28;20509;-85
2022/04/06 06:39:41;;;;;;;0.10;0.10;;;8.10;99.90;;;;;;5035548;28;20037;-89
2022/04/06 06:42:09;;;;;;;0.10;0.10;;;8.10;99.90;;;;;;5063700;28;20116;-85
2022/04/06 06:44:36;;;;;;;0.10;0.10;;;8.10;99.90;;;;;;5035360;28;20041;-85
2022/04/06 06:47:03;;;;;;;0.00;0.00;;;8.00;99.90;;;;;;5051751;28;20415;-88
2022/04/06 06:49:30;;;;;;;0.10;0.10;;;8.00;99.90;;;;;;5051964;28;20049;-85
2022/04/06 06:51:56;;;;;;;0.10;0.10;;;8.00;99.90;;;;;;5019379;28;20052;-85
2022/04/06 06:54:23;;;;;;;0.00;0.00;;;7.90;99.90;;;;;;5018447;28;20068;-85
2022/04/06 06:56:50;;;;;;;0.10;0.10;;;7.90;99.90;;;;;;5018567;28;20044;-87
2022/04/06 06:59:17;;;;;;;0.10;0.10;;;7.90;99.90;;;;;;5045851;28;20033;-87
2022/04/06 07:01:43;;;;;;;0.10;0.10;;;7.90;99.90;;;;;;5050175;28;20041;-85
2022/04/06 07:04:10;;;;;;;0.10;0.10;;;7.90;99.90;;;;;;5071507;28;20047;-88
2022/04/06 07:06:37;;;;;;;0.00;0.00;;;7.90;99.90;;;;;;5070412;28;20041;-84
2022/04/06 07:09:03;;;;;;;0.10;0.10;;;7.40;99.90;;;;;;5071046;28;20037;-87
2022/04/06 07:11:30;;;;;;;0.10;0.10;;;7.80;99.90;;;;;;5053848;28;20041;-85
2022/04/06 07:13:57;;;;;;;0.10;0.10;;;7.80;99.90;;;;;;5070606;28;20108;-87
2022/04/06 07:16:24;;;;;;;0.10;0.10;;;8.10;99.90;;;;;;5071076;28;20040;-88
2022/04/06 07:18:50;;;;;;;0.10;0.10;;;7.80;99.90;;;;;;5068602;28;20037;-86
2022/04/06 07:21:17;;;;;;;0.10;0.10;;;7.80;99.90;;;;;;5071047;28;20036;-89
2022/04/06 07:23:44;;;;;;;0.00;0.00;;;7.80;99.90;;;;;;5063469;28;20093;-89
2022/04/06 07:26:13;;;;;;;0.10;0.10;;;7.80;99.90;;;;;;5067331;28;20131;-86
2022/04/06 07:28:39;;;;;;;0.10;0.10;;;7.80;99.90;;;;;;5069495;28;20041;-87
2022/04/06 07:31:06;;;;;;;0.10;0.10;;;7.80;99.90;;;;;;5035351;28;20045;-86
2022/04/06 07:33:36;;;;;;;0.00;0.00;;;7.80;99.90;;;;;;5018566;28;20037;-86
2022/04/06 07:36:07;;;;;;;0.00;0.00;;;7.80;99.90;;;;;;5019140;28;20425;-87
2022/04/06 07:38:33;;;;;;;0.10;0.10;;;7.90;99.90;;;;;;5055488;28;20033;-88
2022/04/06 07:41:00;;;;;;;0.10;0.10;;;7.80;99.90;;;;;;5064788;28;20470;-88
2022/04/06 07:43:27;;;;;;;0.10;0.10;;;7.80;99.90;;;;;;5091331;28;20064;-87
2022/04/06 07:45:54;;;;;;;0.10;0.10;;;7.90;99.90;;;;;;5023930;28;20044;-86
2022/04/06 07:48:22;;;;;;;0.10;0.10;;;7.90;99.90;;;;;;5035590;28;20470;-87
2022/04/06 07:50:49;;;;;;;0.10;0.10;;;7.90;99.90;;;;;;5047272;28;20037;-88
2022/04/06 07:53:17;;;;;;;0.10;0.10;;;7.90;99.90;;;;;;5033839;28;20124;-86
2022/04/06 07:55:46;;;;;;;0.10;0.10;;;7.90;99.90;;;;;;5030686;28;20045;-86
2022/04/06 07:58:13;;;;;;;0.00;0.00;;;7.90;99.90;;;;;;5068189;28;20081;-87
2022/04/06 08:00:40;;;;;;;0.10;0.10;;;7.90;99.90;;;;;;5053512;28;20037;-86
2022/04/06 08:03:07;;;;;;;0.10;0.10;;;7.90;99.90;;;;;;5020601;28;20092;-89
2022/04/06 08:05:35;;;;;;;0.05;0.05;;;7.90;99.90;;;;;;5041864;28;20025;-88
2022/04/06 08:08:02;;;;;;;0.10;0.10;;;7.90;99.90;;;;;;5039431;28;20106;-87
2022/04/06 08:10:30;;;;;;;0.03;0.03;;;7.40;99.90;;;;;;5058201;28;20033;-86
2022/04/06 08:12:56;;;;;;;0.00;0.00;;;7.90;99.90;;;;;;5040586;28;20041;-84
2022/04/06 08:15:23;;;;;;;0.10;0.10;;;7.90;99.90;;;;;;5033374;28;20045;-87
2022/04/06 08:17:50;;;;;;;0.32;0.20;;;7.90;99.90;;;;;;5070033;28;20493;-87
2022/04/06 08:20:18;;;;;;;0.10;0.10;;;7.90;99.90;;;;;;5040560;28;20126;-87
2022/04/06 08:22:46;;;;;;;0.00;0.00;;;7.90;99.90;;;;;;5057353;28;20498;-88
2022/04/06 08:25:17;;;;;;;0.10;0.10;;;7.90;99.90;;;;;;5055500;28;20143;-87
2022/04/06 08:27:44;;;;;;;0.10;0.10;;;7.90;99.90;;;;;;5062493;28;20040;-88
2022/04/06 08:30:12;;;;;;;0.10;0.10;;;8.00;99.90;;;;;;5059270;28;20044;-86
2022/04/06 08:32:39;;;;;;;0.08;0.08;;;8.00;99.90;;;;;;5046470;28;20096;-86
2022/04/06 08:35:08;;;;;;;0.10;0.10;;;8.00;99.90;;;;;;5053163;28;20045;-88
2022/04/06 08:37:38;;;;;;;0.10;0.10;;;8.00;99.90;;;;;;5052369;28;20723;-89
2022/04/06 08:40:08;;;;;;;0.10;0.10;;;8.00;99.90;;;;;;5074029;28;20067;-87
2022/04/06 08:42:35;;;;;;;0.10;0.10;;;8.10;99.90;;;;;;5089785;28;20387;-86
2022/04/06 08:45:07;;;;;;;0.10;0.10;;;8.20;99.90;;;;;;5073263;28;20041;-87
2022/04/06 08:47:34;;;;;;;0.10;0.10;;;8.10;99.90;;;;;;5073124;28;20037;-86
2022/04/06 08:50:03;;;;;;;0.10;0.10;;;8.20;99.90;;;;;;5073414;28;20036;-88
2022/04/06 08:52:34;;;;;;;0.10;0.10;;;8.20;99.90;;;;;;5051378;28;20098;-86
2022/04/06 08:55:01;;;;;;;0.00;0.00;;;8.20;99.90;;;;;;5065359;28;20516;-90
2022/04/06 08:57:28;;;;;;;0.10;0.10;;;8.20;99.90;;;;;;5051647;28;20036;-89
2022/04/06 08:59:55;;;;;;;0.10;0.10;;;8.20;99.90;;;;;;5071530;28;20038;-86
2022/04/06 09:02:23;;;;;;;0.10;0.10;;;8.20;99.90;;;;;;5037365;28;20411;-87
2022/04/06 09:04:54;;;;;;;0.10;0.10;;;8.20;99.90;;;;;;5069877;28;20398;-85
2022/04/06 09:07:22;;;;;;;0.10;0.10;;;8.20;99.90;;;;;;5052787;28;20055;-84
2022/04/06 09:09:53;;;;;;;0.00;0.00;;;8.20;99.90;;;;;;5088904;28;20082;-82
2022/04/06 09:12:24;;;;;;;0.10;0.10;;;8.20;99.90;;;;;;5055751;28;20045;-82
2022/04/06 09:15:09;;;;;;;0.10;0.10;;;8.20;99.90;;;;;;5071786;28;20044;-88
2022/04/06 09:17:44;;;;;;;0.00;0.00;;;8.20;99.90;;;;;;5088449;28;20482;-86
2022/04/06 09:20:12;;;;;;;0.03;0.03;;;8.30;99.90;;;;;;5089117;28;20044;-82
2022/04/06 09:22:40;;;;;;;0.22;0.17;;;8.30;99.90;;;;;;5072155;28;20438;-86
2022/04/06 09:25:07;;;;;;;0.10;0.10;;;8.30;99.90;;;;;;5091301;28;20056;-86
2022/04/06 09:27:34;;;;;;;0.10;0.10;;;8.30;99.90;;;;;;5055615;28;20060;-82
2022/04/06 09:30:04;;;;;;;0.10;0.10;;;8.40;99.90;;;;;;5071547;28;20413;-82
2022/04/06 09:32:31;;;;;;;0.00;0.00;;;8.40;99.90;;;;;;5072673;28;20551;-86
2022/04/06 09:34:58;;;;;;;0.00;0.00;;;8.40;99.90;;;;;;5054908;28;20045;-82
2022/04/06 09:37:30;;;;;;;0.10;0.10;;;8.50;99.90;;;;;;5068921;28;20049;-87
2022/04/06 09:40:06;;;;;;;0.10;0.10;;;8.60;99.90;;;;;;5052481;28;20044;-82
2022/04/06 09:42:33;;;;;;;0.00;0.00;;;8.50;99.90;;;;;;5052047;28;20426;-83
2022/04/06 09:47:53;;;;;;;0.00;0.00;;;8.70;99.90;;;;;;5074532;28;20045;-82
2022/04/06 09:50:22;;;;;;;0.00;0.00;;;8.70;99.90;;;;;;5070797;28;20082;-82
2022/04/06 09:52:51;;;;;;;0.10;0.10;;;8.80;99.90;;;;;;5055125;28;20480;-87
2022/04/06 09:55:19;;;;;;;0.00;0.00;;;8.80;99.90;;;;;;5055633;28;20029;-88
2022/04/06 09:57:52;;;;;;;0.10;0.10;;;8.80;99.90;;;;;;5071716;28;20080;-83
2022/04/06 10:00:20;;;;;;;0.00;0.00;;;8.90;99.90;;;;;;5087862;28;20406;-86
2022/04/06 10:03:09;;;;;;;0.10;0.10;;;9.00;99.90;;;;;;5088670;28;20037;-81
2022/04/06 10:05:42;;;;;;;0.10;0.10;;;8.90;99.90;;;;;;5057308;28;20095;-85
2022/04/06 10:08:10;;;;;;;0.00;0.00;;;9.00;99.90;;;;;;5051896;28;20045;-85
2022/04/06 10:10:40;;;;;;;0.10;0.10;;;9.10;99.90;;;;;;5066913;28;20092;-80
2022/04/06 10:13:07;;;;;;;0.10;0.10;;;9.10;99.90;;;;;;5062138;28;20045;-85
2022/04/06 10:15:35;;;;;;;0.05;0.05;;;9.20;99.90;;;;;;5056801;28;20060;-85
2022/04/06 10:18:03;;;;;;;0.10;0.10;;;9.30;99.90;;;;;;5088507;28;20045;-85
2022/04/06 10:20:36;;;;;;;0.00;0.00;;;9.40;99.90;;;;;;5087530;28;20044;-80
2022/04/06 10:23:11;;;;;;;0.00;0.00;;;9.40;99.90;;;;;;5063595;28;20419;-85
2022/04/06 10:25:55;;;;;;;0.08;0.08;;;9.50;99.90;;;;;;5068605;28;20052;-81
2022/04/06 10:28:22;;;;;;;0.10;0.10;;;9.40;99.90;;;;;;5085572;28;20040;-81
2022/04/06 10:31:19;;;;;;;0.10;0.10;;;9.40;99.90;;;;;;5110884;28;20109;-81
2022/04/06 10:33:46;;;;;;;0.05;0.05;;;9.30;99.90;;;;;;5111311;28;20040;-81
2022/04/06 10:36:17;;;;;;;0.10;0.10;;;9.30;99.90;;;;;;5094516;28;20569;-81
2022/04/06 10:39:10;;;;;;;0.10;0.10;;;9.30;99.90;;;;;;5091022;28;20036;-85
2022/04/06 10:41:39;;;;;;;0.00;0.00;;;9.30;99.90;;;;;;5085236;28;20503;-81
2022/04/06 10:44:06;;;;;;;0.03;0.03;;;9.20;99.90;;;;;;5077340;28;20484;-86
2022/04/06 10:46:38;;;;;;;0.00;0.00;;;9.30;99.90;;;;;;5075872;28;20044;-82
2022/04/06 10:49:09;;;;;;;0.05;0.05;;;9.20;99.90;;;;;;5074132;28;20036;-85
2022/04/06 10:51:38;;;;;;;0.10;0.10;;;9.20;99.90;;;;;;5087759;28;20736;-81
2022/04/06 10:54:14;;;;;;;0.00;0.00;;;9.20;99.90;;;;;;5079670;28;20037;-81
2022/04/06 10:56:50;;;;;;;;;;;9.20;99.90;;;;;;5074333;28;20041;-85
2022/04/06 10:59:17;;;;;;;0.10;0.10;;;9.20;99.90;;;;;;5090215;28;20610;-81
2022/04/06 11:01:48;;;;;;;0.10;0.10;;;9.20;99.90;;;;;;5090531;28;20043;-84
2022/04/06 11:04:20;;;;;;;0.10;0.10;;;9.20;99.90;;;;;;5074551;28;20040;-85
2022/04/06 11:06:56;;;;;;;0.10;0.10;;;9.20;99.90;;;;;;5073402;28;20142;-80
2022/04/06 11:12:26;;;;;;;0.10;0.10;;;9.10;99.90;;;;;;5090042;28;20523;-85
2022/04/06 11:14:52;;;;;;;0.10;0.10;;;9.20;99.90;;;;;;5075316;28;20114;-81
2022/04/06 11:17:38;;;;;;;0.00;0.00;;;9.20;99.90;;;;;;5110241;28;20032;-85
2022/04/06 11:20:09;;;;;;;0.10;0.10;;;9.10;99.90;;;;;;5106878;28;20037;-80
2022/04/06 11:22:38;;;;;;;0.00;0.00;;;9.10;99.90;;;;;;5073454;28;20037;-85
2022/04/06 11:25:08;;;;;;;0.03;0.03;;;9.10;99.90;;;;;;5090414;28;20083;-86
2022/04/06 11:27:36;;;;;;;0.00;0.00;;;9.00;99.90;;;;;;5103268;28;20401;-86
2022/04/06 11:30:04;;;;;;;0.00;0.00;;;9.00;99.90;;;;;;5096999;28;20043;-80
2022/04/06 11:32:33;;;;;;;0.00;0.00;;;9.10;99.90;;;;;;5147461;28;20046;-85
2022/04/06 11:35:07;;;;;;;0.00;0.00;;;9.00;99.90;;;;;;5106641;28;20032;-81
2022/04/06 11:37:48;;;;;;;0.10;0.10;;;9.10;99.90;;;;;;5078180;28;20038;-85
2022/04/06 11:40:17;;;;;;;0.10;0.10;;;9.10;99.90;;;;;;5092080;28;20039;-80
2022/04/06 11:42:52;;;;;;;0.10;0.10;;;9.10;99.90;;;;;;5090685;28;20043;-85
2022/04/06 11:45:21;;;;;;;0.00;0.00;;;9.10;99.90;;;;;;5109322;28;20047;-80
2022/04/06 11:47:53;;;;;;;0.10;0.10;;;9.10;99.90;;;;;;5087599;28;20503;-81
2022/04/06 11:50:22;;;;;;;0.10;0.10;;;9.20;99.90;;;;;;5078190;28;20119;-85
2022/04/06 11:52:49;;;;;;;0.00;0.00;;;9.20;99.90;;;;;;5101479;28;20040;-80
2022/04/06 11:55:16;;;;;;;0.10;0.10;;;9.20;99.90;;;;;;5089098;28;20035;-85
2022/04/06 11:57:43;;;;;;;0.00;0.00;;;9.40;99.90;;;;;;5075527;28;20517;-85
2022/04/06 12:00:11;;;;;;;0.10;0.10;;;9.50;99.90;;;;;;5108709;28;20040;-81
2022/04/06 12:02:55;;;;;;;0.00;0.00;;;9.60;99.90;;;;;;5075024;28;20570;-85
2022/04/06 12:05:24;;;;;;;0.10;0.10;;;9.70;99.90;;;;;;5109613;28;20117;-81
2022/04/06 12:08:26;;;;;;;0.00;0.00;;;9.90;99.90;;;;;;5092463;28;20101;-81
2022/04/06 12:10:56;;;;;;;0.00;0.00;;;10.00;99.90;;;;;;5028392;28;20049;-81
2022/04/06 12:13:25;;;;;;;0.10;0.10;;;10.10;99.90;;;;;;5045466;28;20048;-87
2022/04/06 12:15:54;;;;;;;0.00;0.00;;;10.10;99.90;;;;;;5056629;28;20094;-81
2022/04/06 12:18:23;;;;;;;0.00;0.00;;;10.20;99.90;;;;;;5056488;28;20072;-82
2022/04/06 12:20:51;;;;;;;0.10;0.10;;;10.20;99.90;;;;;;5056647;28;20032;-85
2022/04/06 12:23:20;;;;;;;0.10;0.10;;;10.20;99.90;;;;;;5056362;28;20051;-81
2022/04/06 12:25:47;;;;;;;0.00;0.00;;;10.20;99.90;;;;;;5055911;28;20071;-85
2022/04/06 12:28:23;;;;;;;0.00;0.00;;;10.10;99.90;;;;;;5069739;28;20040;-85
2022/04/06 12:31:07;;;;;;;0.10;0.10;;;10.10;99.90;;;;;;5089223;28;20033;-81
2022/04/06 12:33:49;;;;;;;0.00;0.00;;;10.20;99.90;;;;;;5072557;28;20102;-81
2022/04/06 12:36:22;;;;;;;0.00;0.00;;;10.20;99.90;;;;;;5091813;28;20039;-82
2022/04/06 12:39:15;;;;;;;0.00;0.00;;;10.30;99.90;;;;;;5099251;28;20484;-87
2022/04/06 12:42:04;;;;;;;0.00;0.00;;;10.50;99.90;;;;;;5089273;28;20439;-82
2022/04/06 12:44:38;;;;;;;0.00;0.00;;;10.60;99.90;;;;;;5092212;28;20051;-85
2022/04/06 12:47:19;;;;;;;0.10;0.10;;;10.60;99.90;;;;;;5089529;28;20036;-82
2022/04/06 12:49:46;;;;;;;0.00;0.00;;;10.70;99.90;;;;;;5091250;28;20042;-86
2022/04/06 12:52:22;;;;;;;0.00;0.00;;;10.70;99.90;;;;;;5076426;28;20511;-88
2022/04/06 12:54:50;;;;;;;0.10;0.10;;;10.60;99.90;;;;;;5076501;28;20043;-82
2022/04/06 12:57:19;;;;;;;0.00;0.00;;;10.60;99.90;;;;;;5071780;28;20489;-86
2022/04/06 13:00:10;;;;;;;0.00;0.00;;;10.60;99.90;;;;;;5080230;28;20067;-80
2022/04/06 13:02:44;;;;;;;0.00;0.00;;;10.70;99.90;;;;;;5088900;28;20057;-84
2022/04/06 13:05:19;;;;;;;0.22;0.20;;;10.90;99.90;;;;;;5077859;28;20500;-87
2022/04/06 13:07:51;;;;;;;0.00;0.00;;;11.00;99.90;;;;;;5083286;28;20036;-86
2022/04/06 13:10:28;;;;;;;0.00;0.00;;;11.20;99.90;;;;;;5076725;28;20044;-82
2022/04/06 13:12:56;;;;;;;0.00;0.00;;;11.20;99.90;;;;;;5071362;28;20040;-79